createdAt,value
2022-10-11T00:01:20.532Z,28.41
2022-10-11T00:03:51.663Z,28.49
2022-10-11T00:06:22.197Z,28.49
2022-10-11T00:08:52.686Z,28.57
2022-10-11T00:11:23.179Z,28.58
2022-10-11T00:13:53.616Z,28.65
2022-10-11T00:16:24.143Z,28.51
2022-10-11T00:18:54.560Z,28.59
2022-10-11T00:21:25.360Z,28.79
2022-10-11T00:23:55.726Z,28.74
2022-10-11T00:26:26.154Z,28.85
2022-10-11T00:28:56.873Z,28.67
2022-10-11T00:31:29.104Z,28.87
2022-10-11T00:34:02.526Z,28.92
2022-10-11T00:36:33.173Z,28.90
2022-10-11T00:39:03.657Z,28.98
2022-10-11T00:41:34.443Z,28.94
2022-10-11T00:44:20.436Z,28.96
2022-10-11T00:47:11.933Z,28.98
2022-10-11T00:49:50.526Z,29.04
2022-10-11T00:52:44.027Z,28.91
2022-10-11T00:55:18.294Z,28.45
2022-10-11T00:57:51.292Z,29.14
2022-10-11T01:00:22.088Z,29.14
2022-10-11T01:02:52.892Z,29.16
2022-10-11T01:05:31.695Z,29.13
2022-10-11T01:08:02.543Z,29.14
2022-10-11T01:10:33.378Z,29.22
2022-10-11T01:13:28.958Z,29.22
2022-10-11T01:16:30.786Z,29.10
2022-10-11T01:19:17.715Z,29.21
2022-10-11T01:22:16.047Z,29.09
2022-10-11T01:25:18.381Z,29.04
2022-10-11T01:28:09.487Z,28.96
2022-10-11T01:30:41.217Z,29.31
2022-10-11T01:33:11.713Z,29.32
2022-10-11T01:36:13.981Z,29.24
2022-10-11T01:38:58.067Z,28.94
2022-10-11T01:41:38.461Z,29.20
2022-10-11T01:44:11.077Z,28.93
2022-10-11T01:46:42.159Z,29.43
2022-10-11T01:49:12.694Z,29.44
2022-10-11T01:51:48.141Z,29.00
2022-10-11T01:54:49.798Z,29.50
2022-10-11T01:57:59.012Z,29.39
2022-10-11T02:00:35.509Z,29.13
2022-10-11T02:03:16.200Z,29.54
2022-10-11T02:05:53.462Z,29.57
2022-10-11T02:08:44.537Z,29.62
2022-10-11T02:11:36.410Z,29.63
2022-10-11T02:14:27.349Z,29.67
2022-10-11T02:17:21.823Z,29.65
2022-10-11T02:20:08.965Z,29.70
2022-10-11T02:22:59.355Z,29.73
2022-10-11T02:25:46.709Z,29.75
2022-10-11T02:28:34.053Z,29.04
2022-10-11T02:31:19.147Z,29.38
2022-10-11T02:34:22.736Z,29.76
2022-10-11T02:37:21.070Z,29.76
2022-10-11T02:40:26.832Z,29.74
2022-10-11T02:43:38.318Z,29.73
2022-10-11T02:46:20.212Z,29.87
2022-10-11T02:49:04.075Z,29.89
2022-10-11T02:51:46.485Z,29.97
2022-10-11T02:54:29.731Z,29.99
2022-10-11T02:57:12.681Z,30.02
2022-10-11T02:59:55.999Z,30.04
2022-10-11T03:02:40.671Z,30.07
2022-10-11T03:05:27.434Z,30.11
2022-10-11T03:08:14.981Z,30.14
2022-10-11T03:10:59.447Z,30.15
2022-10-11T03:13:43.313Z,30.19
2022-10-11T03:16:26.346Z,30.20
2022-10-11T03:19:09.441Z,30.21
2022-10-11T03:21:52.430Z,30.26
2022-10-11T03:24:35.345Z,30.29
2022-10-11T03:27:18.423Z,30.00
2022-10-11T03:30:01.461Z,30.33
2022-10-11T03:32:45.544Z,30.36
2022-10-11T03:35:29.009Z,30.39
2022-10-11T03:38:19.510Z,30.34
2022-10-11T03:41:00.665Z,30.31
2022-10-11T03:43:44.502Z,30.46
2022-10-11T03:46:28.364Z,30.45
2022-10-11T03:49:12.059Z,30.40
2022-10-11T03:51:54.980Z,30.51
2022-10-11T03:54:40.225Z,30.55
2022-10-11T03:57:22.493Z,30.50
2022-10-11T04:00:08.572Z,30.59
2022-10-11T04:02:56.714Z,30.60
2022-10-11T04:05:41.596Z,30.61
2022-10-11T04:08:30.117Z,30.55
2022-10-11T04:11:13.812Z,30.64
2022-10-11T04:13:57.944Z,30.66
2022-10-11T04:16:43.049Z,30.63
2022-10-11T04:19:26.064Z,30.62
2022-10-11T04:22:10.021Z,30.69
2022-10-11T04:24:53.612Z,30.60
2022-10-11T04:27:37.398Z,30.72
2022-10-11T04:30:21.223Z,30.73
2022-10-11T04:33:04.477Z,30.54
2022-10-11T04:35:49.180Z,30.76
2022-10-11T04:38:31.758Z,30.72
2022-10-11T04:41:16.192Z,30.80
2022-10-11T04:47:00.224Z,30.76
2022-10-11T04:49:45.084Z,30.82
2022-10-11T04:52:29.661Z,30.84
2022-10-11T04:55:13.082Z,30.86
2022-10-11T04:57:57.083Z,30.86
2022-10-11T05:00:39.888Z,30.88
2022-10-11T05:03:22.471Z,30.86
2022-10-11T05:06:07.641Z,30.92
2022-10-11T05:08:52.503Z,30.92
2022-10-11T05:11:34.927Z,30.92
2022-10-11T05:14:15.641Z,30.81
2022-10-11T05:16:59.546Z,30.97
2022-10-11T05:19:48.669Z,30.97
2022-10-11T05:22:31.828Z,30.99
2022-10-11T05:25:14.861Z,30.97
2022-10-11T05:27:55.443Z,30.93
2022-10-11T05:30:39.255Z,31.02
2022-10-11T05:33:23.505Z,31.03
2022-10-11T05:36:10.418Z,31.05
2022-10-11T05:38:53.138Z,31.08
2022-10-11T05:41:35.913Z,31.00
2022-10-11T05:44:19.499Z,31.04
2022-10-11T05:47:03.503Z,31.06
2022-10-11T05:49:46.541Z,31.13
2022-10-11T05:52:29.596Z,31.16
2022-10-11T05:55:15.110Z,31.12
2022-10-11T05:57:59.437Z,31.08
2022-10-11T06:00:42.599Z,31.23
2022-10-11T06:03:26.519Z,31.14
2022-10-11T06:06:11.458Z,31.29
2022-10-11T06:08:54.172Z,31.29
2022-10-11T06:11:38.092Z,31.30
2022-10-11T06:14:34.548Z,31.35
2022-10-11T06:17:35.433Z,31.37
2022-10-11T06:20:17.715Z,31.36
2022-10-11T06:23:17.353Z,31.36
2022-10-11T06:26:02.577Z,31.36
2022-10-11T06:29:00.025Z,31.40
2022-10-11T06:32:06.443Z,31.44
2022-10-11T06:35:06.562Z,31.45
2022-10-11T06:38:18.160Z,31.46
2022-10-11T06:41:24.499Z,31.47
2022-10-11T06:44:20.948Z,31.36
2022-10-11T06:47:17.095Z,31.46
2022-10-11T06:49:57.648Z,31.47
2022-10-11T06:52:55.320Z,31.50
2022-10-11T06:56:02.658Z,31.54
2022-10-11T06:59:01.624Z,31.54
2022-10-11T07:02:01.158Z,31.54
2022-10-11T07:04:56.759Z,31.55
2022-10-11T07:08:06.331Z,31.58
2022-10-11T07:10:48.538Z,31.53
2022-10-11T07:13:52.534Z,31.10
2022-10-11T07:16:55.384Z,31.57
2022-10-11T07:19:55.557Z,31.53
2022-10-11T07:22:55.758Z,31.51
2022-10-11T07:25:55.558Z,31.50
2022-10-11T07:29:00.999Z,31.59
2022-10-11T07:32:06.389Z,31.61
2022-10-11T07:35:04.335Z,31.56
2022-10-11T07:38:06.146Z,31.59
2022-10-11T07:41:06.935Z,31.57
2022-10-11T07:44:04.690Z,31.60
2022-10-11T07:47:00.370Z,31.60
2022-10-11T07:49:59.390Z,31.61
2022-10-11T07:52:58.637Z,31.61
2022-10-11T07:56:02.671Z,31.24
2022-10-11T07:59:02.460Z,31.60
2022-10-11T08:01:43.288Z,31.54
2022-10-11T08:04:57.053Z,31.45
2022-10-11T08:08:00.215Z,31.54
2022-10-11T08:10:41.824Z,31.51
2022-10-11T08:13:44.452Z,31.53
2022-10-11T08:16:43.749Z,31.45
2022-10-11T08:19:39.832Z,31.42
2022-10-11T08:22:41.342Z,31.15
2022-10-11T08:25:42.477Z,31.52
2022-10-11T08:28:49.044Z,31.45
2022-10-11T08:31:47.249Z,31.32
2022-10-11T08:34:48.620Z,31.49
2022-10-11T08:37:50.769Z,31.47
2022-10-11T08:40:56.005Z,31.20
2022-10-11T08:44:08.809Z,30.94
2022-10-11T08:47:27.228Z,31.35
2022-10-11T08:50:40.823Z,31.47
2022-10-11T08:53:47.826Z,31.44
2022-10-11T08:56:47.317Z,31.41
2022-10-11T08:59:57.783Z,31.41
2022-10-11T09:03:08.174Z,31.32
2022-10-11T09:06:17.296Z,31.26
2022-10-11T09:12:57.886Z,30.54
2022-10-11T09:16:15.608Z,31.24
2022-10-11T09:19:12.679Z,31.33
2022-10-11T09:22:21.541Z,31.26
2022-10-11T09:25:06.972Z,31.33
2022-10-11T09:28:01.261Z,31.30
2022-10-11T09:30:30.597Z,31.30
2022-10-11T09:33:18.711Z,31.26
2022-10-11T09:35:51.898Z,31.29
2022-10-11T09:38:40.267Z,30.72
2022-10-11T09:41:26.946Z,31.24
2022-10-11T09:43:57.659Z,31.26
2022-10-11T09:46:37.961Z,31.27
2022-10-11T09:49:15.789Z,31.19
2022-10-11T09:51:54.090Z,31.25
2022-10-11T09:55:01.769Z,31.04
2022-10-11T09:57:35.531Z,31.10
2022-10-11T10:00:34.864Z,31.02
2022-10-11T10:03:06.072Z,31.11
2022-10-11T10:05:39.439Z,30.68
2022-10-11T10:08:12.883Z,31.14
2022-10-11T10:10:57.149Z,31.13
2022-10-11T10:13:52.622Z,31.12
2022-10-11T10:16:29.606Z,31.09
2022-10-11T10:19:25.260Z,31.04
2022-10-11T10:21:57.855Z,31.09
2022-10-11T10:24:43.851Z,31.05
2022-10-11T10:27:19.537Z,31.07
2022-10-11T10:30:11.479Z,31.00
2022-10-11T10:33:00.902Z,31.08
2022-10-11T10:35:56.960Z,30.94
2022-10-11T10:38:27.519Z,31.09
2022-10-11T10:41:04.536Z,31.02
2022-10-11T10:43:37.567Z,30.64
2022-10-11T10:46:24.058Z,31.07
2022-10-11T10:49:51.985Z,30.92
2022-10-11T10:52:20.745Z,31.05
2022-10-11T10:55:13.668Z,31.02
2022-10-11T10:58:02.436Z,30.93
2022-10-11T11:00:45.152Z,31.02
2022-10-11T11:03:30.691Z,30.53
2022-10-11T11:06:17.366Z,30.89
2022-10-11T11:09:14.226Z,30.77
2022-10-11T11:12:12.059Z,30.67
2022-10-11T11:14:57.258Z,30.16
2022-10-11T11:18:02.501Z,30.44
2022-10-11T11:20:47.369Z,30.28
2022-10-11T11:23:39.445Z,30.09
2022-10-11T11:26:31.362Z,29.97
2022-10-11T11:29:07.525Z,29.94
2022-10-11T11:31:58.885Z,29.91
2022-10-11T11:34:41.456Z,29.73
2022-10-11T11:37:28.146Z,29.45
2022-10-11T11:40:19.963Z,29.54
2022-10-11T11:42:52.779Z,29.64
2022-10-11T11:45:29.315Z,29.64
2022-10-11T11:48:14.870Z,29.11
2022-10-11T11:50:56.643Z,29.18
2022-10-11T11:53:37.933Z,29.44
2022-10-11T11:56:42.515Z,29.43
2022-10-11T11:59:27.333Z,29.05
2022-10-11T12:02:06.415Z,29.53
2022-10-11T12:04:41.287Z,29.40
2022-10-11T12:07:17.307Z,29.49
2022-10-11T12:09:55.893Z,29.46
2022-10-11T12:12:29.459Z,29.47
2022-10-11T12:15:08.467Z,29.45
2022-10-11T12:18:18.355Z,29.23
2022-10-11T12:21:02.057Z,29.39
2022-10-11T12:23:32.390Z,29.34
2022-10-11T12:26:31.883Z,29.22
2022-10-11T12:29:29.053Z,29.23
2022-10-11T12:32:03.037Z,29.22
2022-10-11T12:37:23.485Z,29.16
2022-10-11T12:39:56.906Z,28.78
2022-10-11T12:42:31.608Z,29.19
2022-10-11T12:45:25.917Z,29.01
2022-10-11T12:48:14.590Z,29.08
2022-10-11T12:51:16.980Z,28.90
2022-10-11T12:54:25.909Z,28.63
2022-10-11T12:57:46.212Z,28.87
2022-10-11T13:00:32.945Z,28.60
2022-10-11T13:03:31.119Z,28.42
2022-10-11T13:06:17.548Z,28.84
2022-10-11T13:08:55.616Z,28.45
2022-10-11T13:11:36.698Z,28.91
2022-10-11T13:14:18.646Z,28.56
2022-10-11T13:16:52.501Z,29.13
2022-10-11T13:19:24.966Z,29.16
2022-10-11T13:21:58.789Z,29.08
2022-10-11T13:24:36.769Z,29.24
2022-10-11T13:27:09.885Z,29.18
2022-10-11T13:29:45.020Z,28.91
2022-10-11T13:32:24.690Z,29.20
2022-10-11T13:34:59.178Z,29.36
2022-10-11T13:37:31.946Z,29.28
2022-10-11T13:40:02.921Z,29.20
2022-10-11T13:42:37.588Z,29.15
2022-10-11T13:45:14.845Z,29.07
2022-10-11T13:47:45.856Z,28.94
2022-10-11T13:50:31.722Z,28.91
2022-10-11T13:53:11.523Z,28.87
2022-10-11T13:55:58.486Z,28.37
2022-10-11T13:58:49.287Z,28.69
2022-10-11T14:01:24.587Z,28.71
2022-10-11T14:04:02.873Z,28.67
2022-10-11T14:06:47.902Z,28.65
2022-10-11T14:09:20.674Z,27.81
2022-10-11T14:11:52.195Z,28.65
2022-10-11T14:14:34.854Z,28.57
2022-10-11T14:17:16.965Z,28.54
2022-10-11T14:19:49.924Z,28.56
2022-10-11T14:22:20.547Z,28.48
2022-10-11T14:24:51.154Z,28.41
2022-10-11T14:27:28.797Z,27.96
2022-10-11T14:30:25.224Z,28.44
2022-10-11T14:32:53.345Z,28.35
2022-10-11T14:35:33.185Z,28.34
2022-10-11T14:38:03.850Z,28.27
2022-10-11T14:40:34.390Z,28.28
2022-10-11T14:43:05.163Z,28.24
2022-10-11T14:45:35.767Z,28.14
2022-10-11T14:48:07.202Z,28.20
2022-10-11T14:51:06.155Z,27.90
2022-10-11T14:53:40.743Z,28.17
2022-10-11T14:56:11.698Z,27.97
2022-10-11T14:58:43.530Z,28.13
2022-10-11T15:01:16.162Z,28.10
2022-10-11T15:03:46.926Z,28.15
2022-10-11T15:06:34.005Z,27.73
2022-10-11T15:09:05.321Z,28.14
2022-10-11T15:11:36.884Z,28.10
2022-10-11T15:14:08.037Z,28.07
2022-10-11T15:16:44.557Z,28.09
2022-10-11T15:19:23.644Z,28.17
2022-10-11T15:21:54.307Z,28.31
2022-10-11T15:24:24.973Z,28.35
2022-10-11T15:26:55.628Z,28.29
2022-10-11T15:29:26.078Z,28.38
2022-10-11T15:31:56.528Z,28.24
2022-10-11T15:34:26.993Z,28.18
2022-10-11T15:36:57.390Z,28.38
2022-10-11T15:39:34.878Z,28.39
2022-10-11T15:42:05.426Z,28.32
2022-10-11T15:44:36.445Z,28.38
2022-10-11T15:47:06.978Z,28.29
2022-10-11T15:49:37.392Z,28.31
2022-10-11T15:52:07.828Z,28.34
2022-10-11T15:54:38.601Z,28.38
2022-10-11T15:57:09.511Z,28.33
2022-10-11T15:59:40.082Z,28.33
2022-10-11T16:02:16.248Z,28.31
2022-10-11T16:04:46.967Z,28.31
2022-10-11T16:07:17.426Z,28.30
2022-10-11T16:09:47.954Z,28.32
2022-10-11T16:12:18.375Z,28.18
2022-10-11T16:14:48.885Z,28.28
2022-10-11T16:17:19.299Z,28.21
2022-10-11T16:19:52.430Z,28.29
2022-10-11T16:22:23.301Z,28.29
2022-10-11T16:24:56.290Z,28.28
2022-10-11T16:27:26.717Z,28.29
2022-10-11T16:30:00.164Z,28.35
2022-10-11T16:32:30.687Z,28.35
2022-10-11T16:35:01.294Z,28.38
2022-10-11T16:37:33.587Z,28.36
2022-10-11T16:40:04.609Z,28.37
2022-10-11T16:42:44.969Z,28.36
2022-10-11T16:45:17.105Z,28.35
2022-10-11T16:47:47.650Z,28.34
2022-10-11T16:50:18.048Z,28.28
2022-10-11T16:52:48.480Z,28.34
2022-10-11T16:55:19.103Z,28.33
2022-10-11T16:57:49.625Z,28.38
2022-10-11T17:00:20.217Z,28.37
2022-10-11T17:02:50.668Z,28.36
2022-10-11T17:05:21.192Z,28.33
2022-10-11T17:07:51.679Z,28.35
2022-10-11T17:10:40.130Z,28.33
2022-10-11T17:13:10.534Z,28.32
2022-10-11T17:15:41.495Z,28.32
2022-10-11T17:18:12.020Z,28.32
2022-10-11T17:20:42.462Z,28.32
2022-10-11T17:23:13.559Z,28.32
2022-10-11T17:25:46.634Z,27.40
2022-10-11T17:28:17.020Z,28.16
2022-10-11T17:30:57.791Z,28.26
2022-10-11T17:33:29.255Z,28.25
2022-10-11T17:36:01.745Z,27.88
2022-10-11T17:38:32.193Z,28.31
2022-10-11T17:41:04.604Z,27.89
2022-10-11T17:43:36.190Z,28.27
2022-10-11T17:46:09.474Z,28.29
2022-10-11T17:48:40.382Z,28.26
2022-10-11T17:51:13.568Z,27.34
2022-10-11T17:53:44.312Z,28.27
2022-10-11T17:56:23.893Z,27.84
2022-10-11T17:58:59.180Z,27.69
2022-10-11T18:01:31.153Z,28.23
2022-10-11T18:04:04.078Z,28.16
2022-10-11T18:06:40.934Z,27.98
2022-10-11T18:09:11.632Z,28.24
2022-10-11T18:11:42.684Z,28.17
2022-10-11T18:14:13.562Z,28.25
2022-10-11T18:16:44.080Z,28.25
2022-10-11T18:19:15.598Z,27.88
2022-10-11T18:21:46.068Z,28.13
2022-10-11T18:24:18.047Z,28.22
2022-10-11T18:26:48.963Z,28.12
2022-10-11T18:29:20.392Z,28.18
2022-10-11T18:31:51.063Z,28.18
2022-10-11T18:34:21.804Z,28.18
2022-10-11T18:36:52.222Z,28.14
2022-10-11T18:39:23.074Z,28.10
2022-10-11T18:41:53.578Z,28.16
2022-10-11T18:44:24.047Z,28.16
2022-10-11T18:46:55.051Z,28.16
2022-10-11T18:49:25.526Z,28.14
2022-10-11T18:51:56.111Z,28.14
2022-10-11T18:54:26.612Z,28.12
2022-10-11T18:56:57.033Z,28.11
2022-10-11T18:59:27.457Z,28.13
2022-10-11T19:01:57.848Z,28.10
2022-10-11T19:04:29.553Z,28.14
2022-10-11T19:07:00.660Z,28.09
2022-10-11T19:09:31.716Z,28.02
2022-10-11T19:12:02.109Z,28.13
2022-10-11T19:14:32.527Z,28.11
2022-10-11T19:17:02.997Z,28.03
2022-10-11T19:19:34.165Z,28.10
2022-10-11T19:22:04.616Z,28.06
2022-10-11T19:24:35.075Z,28.06
2022-10-11T19:27:05.571Z,28.08
2022-10-11T19:29:36.143Z,28.07
2022-10-11T19:32:06.762Z,28.05
2022-10-11T19:34:37.197Z,28.06
2022-10-11T19:37:07.657Z,28.07
2022-10-11T19:39:38.027Z,28.07
2022-10-11T19:42:08.676Z,28.04
2022-10-11T19:44:40.346Z,28.04
2022-10-11T19:47:11.242Z,27.85
2022-10-11T19:49:42.025Z,28.02
2022-10-11T19:52:14.318Z,28.02
2022-10-11T19:54:44.902Z,28.03
2022-10-11T19:57:15.505Z,28.02
2022-10-11T19:59:46.737Z,28.00
2022-10-11T20:02:17.668Z,27.96
2022-10-11T20:04:53.387Z,27.99
2022-10-11T20:07:23.886Z,27.98
2022-10-11T20:09:54.417Z,27.99
2022-10-11T20:12:24.816Z,27.98
2022-10-11T20:14:55.353Z,27.94
2022-10-11T20:17:45.488Z,27.85
2022-10-11T20:20:17.280Z,27.95
2022-10-11T20:22:47.731Z,27.88
2022-10-11T20:25:18.156Z,27.83
2022-10-11T20:27:48.694Z,27.91
2022-10-11T20:30:19.107Z,27.89
2022-10-11T20:32:49.500Z,27.88
2022-10-11T20:35:19.955Z,27.88
2022-10-11T20:37:50.447Z,27.90
2022-10-11T20:40:20.904Z,27.85
2022-10-11T20:42:51.298Z,27.80
2022-10-11T20:45:21.906Z,27.85
2022-10-11T20:47:55.148Z,27.49
2022-10-11T20:50:25.571Z,27.76
2022-10-11T20:52:55.908Z,27.75
2022-10-11T20:55:26.574Z,27.85
2022-10-11T20:57:57.642Z,27.84
2022-10-11T21:00:28.143Z,27.82
2022-10-11T21:02:58.513Z,27.82
2022-10-11T21:05:28.906Z,27.80
2022-10-11T21:07:59.764Z,27.75
2022-10-11T21:10:30.776Z,27.81
2022-10-11T21:13:01.255Z,27.77
2022-10-11T21:15:33.620Z,27.78
2022-10-11T21:18:04.050Z,27.77
2022-10-11T21:20:34.503Z,27.79
2022-10-11T21:23:04.870Z,27.76
2022-10-11T21:25:37.321Z,27.38
2022-10-11T21:28:08.756Z,27.80
2022-10-11T21:30:39.279Z,27.63
2022-10-11T21:33:09.834Z,27.77
2022-10-11T21:35:41.273Z,27.76
2022-10-11T21:38:13.562Z,27.72
2022-10-11T21:40:44.009Z,27.76
2022-10-11T21:43:14.687Z,27.76
2022-10-11T21:45:45.249Z,27.75
2022-10-11T21:48:15.678Z,27.73
2022-10-11T21:50:46.085Z,27.72
2022-10-11T21:53:16.711Z,27.72
2022-10-11T21:55:47.105Z,27.69
2022-10-11T21:58:17.488Z,27.67
2022-10-11T22:00:48.969Z,27.53
2022-10-11T22:03:19.724Z,27.62
2022-10-11T22:05:50.911Z,27.62
2022-10-11T22:08:21.592Z,27.62
2022-10-11T22:10:56.895Z,27.54
2022-10-11T22:13:28.872Z,27.59
2022-10-11T22:16:02.578Z,27.55
2022-10-11T22:18:33.916Z,27.52
2022-10-11T22:21:07.395Z,27.56
2022-10-11T22:23:37.973Z,27.55
2022-10-11T22:26:10.907Z,27.06
2022-10-11T22:28:41.729Z,27.54
2022-10-11T22:31:12.508Z,27.53
2022-10-11T22:33:46.470Z,27.52
2022-10-11T22:36:18.197Z,27.52
2022-10-11T22:38:48.861Z,27.50
2022-10-11T22:41:19.482Z,27.53
2022-10-11T22:43:50.187Z,27.50
2022-10-11T22:46:20.903Z,27.49
2022-10-11T22:48:51.290Z,27.49
2022-10-11T22:51:21.857Z,27.51
2022-10-11T22:53:52.605Z,27.52
2022-10-11T22:56:23.244Z,27.47
2022-10-11T22:58:53.680Z,27.48
2022-10-11T23:01:24.060Z,27.32
2022-10-11T23:03:55.011Z,27.30
2022-10-11T23:06:25.645Z,27.32
2022-10-11T23:08:56.199Z,27.35
2022-10-11T23:11:26.636Z,27.39
2022-10-11T23:13:57.342Z,27.51
2022-10-11T23:16:28.150Z,27.47
2022-10-11T23:18:58.990Z,27.62
2022-10-11T23:21:30.392Z,27.69
2022-10-11T23:24:00.895Z,27.71
2022-10-11T23:26:31.554Z,27.90
2022-10-11T23:29:02.074Z,27.97
2022-10-11T23:31:32.441Z,28.03
2022-10-11T23:34:02.933Z,27.81
2022-10-11T23:36:33.419Z,28.04
2022-10-11T23:39:03.995Z,28.04
2022-10-11T23:41:34.468Z,28.04
2022-10-11T23:44:05.193Z,28.19
2022-10-11T23:46:35.580Z,28.21
2022-10-11T23:49:06.619Z,28.18
2022-10-11T23:51:37.072Z,28.31
2022-10-11T23:54:07.995Z,28.32
2022-10-11T23:56:38.400Z,28.23
2022-10-11T23:59:09.004Z,28.46
